sensor_id;sensor_type;location;lat;lon;timestamp;P1;durP1;ratioP1;P2;durP2;ratioP2
56680;SDS011;42558;52.388;13.390;2022-12-26T00:01:59;10.45;;;6.27;;
56680;SDS011;42558;52.388;13.390;2022-12-26T00:04:29;11.78;;;6.84;;
56680;SDS011;42558;52.388;13.390;2022-12-26T00:07:19;12.73;;;6.84;;
56680;SDS011;42558;52.388;13.390;2022-12-26T00:09:47;13.49;;;6.46;;
56680;SDS011;42558;52.388;13.390;2022-12-26T00:12:16;10.64;;;6.46;;
56680;SDS011;42558;52.388;13.390;2022-12-26T00:14:44;12.35;;;6.46;;
56680;SDS011;42558;52.388;13.390;2022-12-26T00:17:13;11.78;;;6.08;;
56680;SDS011;42558;52.388;13.390;2022-12-26T00:19:41;14.06;;;6.84;;
56680;SDS011;42558;52.388;13.390;2022-12-26T00:22:09;11.02;;;5.89;;
56680;SDS011;42558;52.388;13.390;2022-12-26T00:24:38;11.78;;;5.89;;
56680;SDS011;42558;52.388;13.390;2022-12-26T00:27:06;17.10;;;6.46;;
56680;SDS011;42558;52.388;13.390;2022-12-26T00:29:35;11.21;;;6.27;;
56680;SDS011;42558;52.388;13.390;2022-12-26T00:32:03;9.12;;;5.70;;
56680;SDS011;42558;52.388;13.390;2022-12-26T00:34:32;11.59;;;6.84;;
56680;SDS011;42558;52.388;13.390;2022-12-26T00:37:00;12.92;;;6.27;;
56680;SDS011;42558;52.388;13.390;2022-12-26T00:39:28;10.64;;;6.27;;
56680;SDS011;42558;52.388;13.390;2022-12-26T00:41:57;12.73;;;7.60;;
56680;SDS011;42558;52.388;13.390;2022-12-26T00:44:25;9.88;;;6.65;;
56680;SDS011;42558;52.388;13.390;2022-12-26T00:46:54;11.40;;;5.89;;
56680;SDS011;42558;52.388;13.390;2022-12-26T00:49:22;13.68;;;6.27;;
56680;SDS011;42558;52.388;13.390;2022-12-26T00:51:51;9.50;;;5.70;;
56680;SDS011;42558;52.388;13.390;2022-12-26T00:54:19;11.40;;;6.08;;
56680;SDS011;42558;52.388;13.390;2022-12-26T00:56:47;10.07;;;6.27;;
56680;SDS011;42558;52.388;13.390;2022-12-26T00:59:16;11.78;;;6.08;;
56680;SDS011;42558;52.388;13.390;2022-12-26T01:01:44;12.92;;;6.08;;
56680;SDS011;42558;52.388;13.390;2022-12-26T01:04:13;15.01;;;6.46;;
56680;SDS011;42558;52.388;13.390;2022-12-26T01:06:41;10.26;;;6.08;;
56680;SDS011;42558;52.388;13.390;2022-12-26T01:09:10;11.40;;;6.08;;
56680;SDS011;42558;52.388;13.390;2022-12-26T01:11:41;9.88;;;5.89;;
56680;SDS011;42558;52.388;13.390;2022-12-26T01:14:15;8.36;;;4.94;;
56680;SDS011;42558;52.388;13.390;2022-12-26T01:16:46;9.69;;;5.70;;
56680;SDS011;42558;52.388;13.390;2022-12-26T01:19:16;12.54;;;5.51;;
56680;SDS011;42558;52.388;13.390;2022-12-26T01:21:46;10.83;;;6.65;;
56680;SDS011;42558;52.388;13.390;2022-12-26T01:24:15;9.88;;;5.70;;
56680;SDS011;42558;52.388;13.390;2022-12-26T01:26:45;10.45;;;5.70;;
56680;SDS011;42558;52.388;13.390;2022-12-26T01:29:15;12.54;;;6.27;;
56680;SDS011;42558;52.388;13.390;2022-12-26T01:31:45;11.02;;;5.70;;
56680;SDS011;42558;52.388;13.390;2022-12-26T01:34:15;8.93;;;5.70;;
56680;SDS011;42558;52.388;13.390;2022-12-26T01:36:44;11.97;;;6.08;;
56680;SDS011;42558;52.388;13.390;2022-12-26T01:39:14;10.07;;;5.89;;
56680;SDS011;42558;52.388;13.390;2022-12-26T01:41:44;11.02;;;5.89;;
56680;SDS011;42558;52.388;13.390;2022-12-26T01:51:03;9.50;;;6.08;;
56680;SDS011;42558;52.388;13.390;2022-12-26T01:53:37;12.54;;;5.70;;
56680;SDS011;42558;52.388;13.390;2022-12-26T01:56:12;11.78;;;5.70;;
56680;SDS011;42558;52.388;13.390;2022-12-26T01:58:51;13.11;;;6.65;;
56680;SDS011;42558;52.388;13.390;2022-12-26T02:01:28;9.12;;;5.51;;
56680;SDS011;42558;52.388;13.390;2022-12-26T02:04:04;11.21;;;6.27;;
56680;SDS011;42558;52.388;13.390;2022-12-26T02:06:53;11.78;;;5.89;;
56680;SDS011;42558;52.388;13.390;2022-12-26T02:09:22;9.31;;;5.32;;
56680;SDS011;42558;52.388;13.390;2022-12-26T02:11:55;10.26;;;6.08;;
56680;SDS011;42558;52.388;13.390;2022-12-26T02:14:51;12.16;;;6.27;;
56680;SDS011;42558;52.388;13.390;2022-12-26T02:17:20;9.88;;;5.89;;
56680;SDS011;42558;52.388;13.390;2022-12-26T02:29:13;8.55;;;5.13;;
56680;SDS011;42558;52.388;13.390;2022-12-26T02:47:40;8.93;;;4.94;;
56680;SDS011;42558;52.388;13.390;2022-12-26T02:53:47;9.69;;;5.32;;
56680;SDS011;42558;52.388;13.390;2022-12-26T02:56:44;10.83;;;6.08;;
56680;SDS011;42558;52.388;13.390;2022-12-26T03:03:00;11.02;;;5.70;;
56680;SDS011;42558;52.388;13.390;2022-12-26T03:06:05;8.93;;;5.70;;
56680;SDS011;42558;52.388;13.390;2022-12-26T03:09:06;9.88;;;6.46;;
56680;SDS011;42558;52.388;13.390;2022-12-26T03:12:02;10.26;;;5.70;;
56680;SDS011;42558;52.388;13.390;2022-12-26T03:15:00;10.07;;;5.51;;
56680;SDS011;42558;52.388;13.390;2022-12-26T03:17:41;8.74;;;5.51;;
56680;SDS011;42558;52.388;13.390;2022-12-26T03:20:33;9.69;;;5.51;;
56680;SDS011;42558;52.388;13.390;2022-12-26T03:23:09;13.30;;;6.08;;
56680;SDS011;42558;52.388;13.390;2022-12-26T03:25:55;9.50;;;5.89;;
56680;SDS011;42558;52.388;13.390;2022-12-26T03:28:46;10.07;;;6.27;;
56680;SDS011;42558;52.388;13.390;2022-12-26T03:31:16;10.26;;;5.51;;
56680;SDS011;42558;52.388;13.390;2022-12-26T03:33:47;14.06;;;6.84;;
56680;SDS011;42558;52.388;13.390;2022-12-26T03:40:15;9.69;;;5.70;;
56680;SDS011;42558;52.388;13.390;2022-12-26T03:43:44;13.11;;;6.46;;
56680;SDS011;42558;52.388;13.390;2022-12-26T03:50:41;10.45;;;6.27;;
56680;SDS011;42558;52.388;13.390;2022-12-26T03:53:42;10.26;;;6.27;;
56680;SDS011;42558;52.388;13.390;2022-12-26T03:56:45;11.59;;;6.46;;
56680;SDS011;42558;52.388;13.390;2022-12-26T04:02:46;10.64;;;5.89;;
56680;SDS011;42558;52.388;13.390;2022-12-26T04:05:41;10.64;;;6.65;;
56680;SDS011;42558;52.388;13.390;2022-12-26T04:08:45;11.78;;;5.89;;
56680;SDS011;42558;52.388;13.390;2022-12-26T04:11:47;13.49;;;6.46;;
56680;SDS011;42558;52.388;13.390;2022-12-26T04:14:43;11.21;;;6.27;;
56680;SDS011;42558;52.388;13.390;2022-12-26T04:17:59;11.40;;;6.08;;
56680;SDS011;42558;52.388;13.390;2022-12-26T04:24:23;11.78;;;6.65;;
56680;SDS011;42558;52.388;13.390;2022-12-26T04:27:17;10.45;;;6.27;;
56680;SDS011;42558;52.388;13.390;2022-12-26T04:30:09;8.93;;;5.51;;
56680;SDS011;42558;52.388;13.390;2022-12-26T04:33:05;11.21;;;6.27;;
56680;SDS011;42558;52.388;13.390;2022-12-26T04:36:02;9.88;;;6.08;;
56680;SDS011;42558;52.388;13.390;2022-12-26T04:39:03;11.97;;;7.03;;
56680;SDS011;42558;52.388;13.390;2022-12-26T04:41:57;11.02;;;6.46;;
56680;SDS011;42558;52.388;13.390;2022-12-26T04:44:47;10.83;;;6.46;;
56680;SDS011;42558;52.388;13.390;2022-12-26T04:47:19;12.35;;;6.27;;
56680;SDS011;42558;52.388;13.390;2022-12-26T04:49:49;11.78;;;6.84;;
56680;SDS011;42558;52.388;13.390;2022-12-26T04:52:39;9.88;;;5.89;;
56680;SDS011;42558;52.388;13.390;2022-12-26T04:55:31;12.92;;;6.65;;
56680;SDS011;42558;52.388;13.390;2022-12-26T04:58:04;11.97;;;5.89;;
56680;SDS011;42558;52.388;13.390;2022-12-26T05:00:33;12.92;;;6.46;;
56680;SDS011;42558;52.388;13.390;2022-12-26T05:03:03;10.07;;;6.08;;
56680;SDS011;42558;52.388;13.390;2022-12-26T05:05:52;10.64;;;6.84;;
56680;SDS011;42558;52.388;13.390;2022-12-26T05:08:43;9.69;;;5.51;;
56680;SDS011;42558;52.388;13.390;2022-12-26T05:11:33;12.16;;;5.89;;
56680;SDS011;42558;52.388;13.390;2022-12-26T05:14:03;8.93;;;5.70;;
56680;SDS011;42558;52.388;13.390;2022-12-26T05:16:33;10.64;;;5.70;;
56680;SDS011;42558;52.388;13.390;2022-12-26T05:19:22;8.93;;;5.51;;
56680;SDS011;42558;52.388;13.390;2022-12-26T05:22:09;9.88;;;6.08;;
56680;SDS011;42558;52.388;13.390;2022-12-26T05:24:58;8.55;;;5.32;;
56680;SDS011;42558;52.388;13.390;2022-12-26T05:27:47;8.93;;;5.51;;
56680;SDS011;42558;52.388;13.390;2022-12-26T05:30:35;10.07;;;6.46;;
56680;SDS011;42558;52.388;13.390;2022-12-26T05:33:05;11.02;;;5.51;;
56680;SDS011;42558;52.388;13.390;2022-12-26T05:35:52;11.78;;;4.94;;
56680;SDS011;42558;52.388;13.390;2022-12-26T05:38:20;9.12;;;5.32;;
56680;SDS011;42558;52.388;13.390;2022-12-26T05:40:48;10.45;;;5.51;;
56680;SDS011;42558;52.388;13.390;2022-12-26T05:43:17;10.07;;;5.13;;
56680;SDS011;42558;52.388;13.390;2022-12-26T05:45:45;7.60;;;4.37;;
56680;SDS011;42558;52.388;13.390;2022-12-26T05:48:14;8.93;;;4.56;;
56680;SDS011;42558;52.388;13.390;2022-12-26T05:50:42;10.83;;;5.89;;
56680;SDS011;42558;52.388;13.390;2022-12-26T05:53:11;9.50;;;5.70;;
56680;SDS011;42558;52.388;13.390;2022-12-26T05:55:40;9.50;;;4.37;;
56680;SDS011;42558;52.388;13.390;2022-12-26T05:58:07;9.69;;;5.13;;
56680;SDS011;42558;52.388;13.390;2022-12-26T06:00:36;9.12;;;4.75;;
56680;SDS011;42558;52.388;13.390;2022-12-26T06:03:04;8.36;;;4.56;;
56680;SDS011;42558;52.388;13.390;2022-12-26T06:05:33;10.07;;;5.13;;
56680;SDS011;42558;52.388;13.390;2022-12-26T06:08:02;8.36;;;4.94;;
56680;SDS011;42558;52.388;13.390;2022-12-26T06:10:29;10.64;;;5.13;;
56680;SDS011;42558;52.388;13.390;2022-12-26T06:12:59;8.55;;;4.94;;
56680;SDS011;42558;52.388;13.390;2022-12-26T06:15:29;9.31;;;4.75;;
56680;SDS011;42558;52.388;13.390;2022-12-26T06:17:59;10.26;;;4.94;;
56680;SDS011;42558;52.388;13.390;2022-12-26T06:20:29;8.93;;;5.13;;
56680;SDS011;42558;52.388;13.390;2022-12-26T06:22:59;12.35;;;4.94;;
56680;SDS011;42558;52.388;13.390;2022-12-26T06:25:28;8.36;;;4.56;;
56680;SDS011;42558;52.388;13.390;2022-12-26T06:27:58;12.16;;;4.75;;
56680;SDS011;42558;52.388;13.390;2022-12-26T06:30:27;9.88;;;5.32;;
56680;SDS011;42558;52.388;13.390;2022-12-26T06:32:55;7.98;;;4.37;;
56680;SDS011;42558;52.388;13.390;2022-12-26T06:35:24;9.50;;;4.94;;
56680;SDS011;42558;52.388;13.390;2022-12-26T06:37:52;12.35;;;5.70;;
56680;SDS011;42558;52.388;13.390;2022-12-26T06:40:20;9.88;;;5.13;;
56680;SDS011;42558;52.388;13.390;2022-12-26T06:42:49;9.50;;;4.94;;
56680;SDS011;42558;52.388;13.390;2022-12-26T06:45:17;8.36;;;4.94;;
56680;SDS011;42558;52.388;13.390;2022-12-26T06:47:46;11.59;;;5.13;;
56680;SDS011;42558;52.388;13.390;2022-12-26T06:50:14;9.12;;;5.32;;
56680;SDS011;42558;52.388;13.390;2022-12-26T06:52:43;9.12;;;5.13;;
56680;SDS011;42558;52.388;13.390;2022-12-26T06:55:11;10.83;;;5.13;;
56680;SDS011;42558;52.388;13.390;2022-12-26T06:57:39;12.92;;;5.13;;
56680;SDS011;42558;52.388;13.390;2022-12-26T07:00:09;10.83;;;5.13;;
56680;SDS011;42558;52.388;13.390;2022-12-26T07:02:36;8.36;;;4.94;;
56680;SDS011;42558;52.388;13.390;2022-12-26T07:05:05;15.39;;;5.32;;
56680;SDS011;42558;52.388;13.390;2022-12-26T07:07:33;9.50;;;4.94;;
56680;SDS011;42558;52.388;13.390;2022-12-26T07:10:02;9.50;;;4.94;;
56680;SDS011;42558;52.388;13.390;2022-12-26T07:12:33;8.93;;;5.51;;
56680;SDS011;42558;52.388;13.390;2022-12-26T07:15:02;10.83;;;4.56;;
56680;SDS011;42558;52.388;13.390;2022-12-26T07:17:30;10.07;;;3.99;;
56680;SDS011;42558;52.388;13.390;2022-12-26T07:19:58;7.60;;;4.18;;
56680;SDS011;42558;52.388;13.390;2022-12-26T07:22:27;11.78;;;4.56;;
56680;SDS011;42558;52.388;13.390;2022-12-26T07:24:55;8.55;;;4.75;;
56680;SDS011;42558;52.388;13.390;2022-12-26T07:27:24;9.50;;;3.99;;
56680;SDS011;42558;52.388;13.390;2022-12-26T07:29:52;8.55;;;4.56;;
56680;SDS011;42558;52.388;13.390;2022-12-26T07:32:20;9.31;;;4.18;;
56680;SDS011;42558;52.388;13.390;2022-12-26T07:34:49;7.41;;;4.18;;
56680;SDS011;42558;52.388;13.390;2022-12-26T07:37:17;7.03;;;2.85;;
56680;SDS011;42558;52.388;13.390;2022-12-26T07:39:46;7.60;;;3.80;;
56680;SDS011;42558;52.388;13.390;2022-12-26T07:42:19;7.60;;;4.18;;
56680;SDS011;42558;52.388;13.390;2022-12-26T07:44:49;10.83;;;4.56;;
56680;SDS011;42558;52.388;13.390;2022-12-26T07:47:18;10.45;;;4.18;;
56680;SDS011;42558;52.388;13.390;2022-12-26T07:49:48;8.74;;;4.18;;
56680;SDS011;42558;52.388;13.390;2022-12-26T07:52:18;9.88;;;4.94;;
56680;SDS011;42558;52.388;13.390;2022-12-26T07:54:48;9.88;;;5.13;;
56680;SDS011;42558;52.388;13.390;2022-12-26T07:57:18;9.31;;;4.75;;
56680;SDS011;42558;52.388;13.390;2022-12-26T08:00:08;7.98;;;4.56;;
56680;SDS011;42558;52.388;13.390;2022-12-26T08:02:39;9.88;;;3.99;;
56680;SDS011;42558;52.388;13.390;2022-12-26T08:05:10;7.79;;;4.37;;
56680;SDS011;42558;52.388;13.390;2022-12-26T08:07:39;9.50;;;4.18;;
56680;SDS011;42558;52.388;13.390;2022-12-26T08:10:09;8.36;;;3.80;;
56680;SDS011;42558;52.388;13.390;2022-12-26T08:12:39;11.78;;;3.99;;
56680;SDS011;42558;52.388;13.390;2022-12-26T08:15:12;8.74;;;3.80;;
56680;SDS011;42558;52.388;13.390;2022-12-26T08:17:41;7.60;;;4.18;;
56680;SDS011;42558;52.388;13.390;2022-12-26T08:20:09;7.79;;;4.18;;
56680;SDS011;42558;52.388;13.390;2022-12-26T08:22:37;8.74;;;4.56;;
56680;SDS011;42558;52.388;13.390;2022-12-26T08:25:06;7.79;;;3.99;;
56680;SDS011;42558;52.388;13.390;2022-12-26T08:27:34;9.69;;;4.75;;
56680;SDS011;42558;52.388;13.390;2022-12-26T08:30:03;9.12;;;5.13;;
56680;SDS011;42558;52.388;13.390;2022-12-26T08:32:32;9.31;;;5.13;;
56680;SDS011;42558;52.388;13.390;2022-12-26T08:34:59;9.50;;;4.75;;
56680;SDS011;42558;52.388;13.390;2022-12-26T08:37:28;10.26;;;5.70;;
56680;SDS011;42558;52.388;13.390;2022-12-26T08:39:56;9.88;;;5.32;;
56680;SDS011;42558;52.388;13.390;2022-12-26T08:42:25;8.74;;;5.13;;
56680;SDS011;42558;52.388;13.390;2022-12-26T08:44:53;9.88;;;3.99;;
56680;SDS011;42558;52.388;13.390;2022-12-26T08:47:22;10.26;;;5.51;;
56680;SDS011;42558;52.388;13.390;2022-12-26T08:49:54;8.93;;;5.13;;
56680;SDS011;42558;52.388;13.390;2022-12-26T08:52:24;9.50;;;5.32;;
56680;SDS011;42558;52.388;13.390;2022-12-26T08:54:54;7.98;;;4.75;;
56680;SDS011;42558;52.388;13.390;2022-12-26T08:57:24;11.02;;;5.32;;
56680;SDS011;42558;52.388;13.390;2022-12-26T08:59:54;11.78;;;5.32;;
56680;SDS011;42558;52.388;13.390;2022-12-26T09:02:24;9.12;;;5.13;;
56680;SDS011;42558;52.388;13.390;2022-12-26T09:04:54;9.88;;;5.51;;
56680;SDS011;42558;52.388;13.390;2022-12-26T09:07:24;8.55;;;5.32;;
56680;SDS011;42558;52.388;13.390;2022-12-26T09:09:54;9.12;;;5.51;;
56680;SDS011;42558;52.388;13.390;2022-12-26T09:12:24;13.30;;;5.32;;
56680;SDS011;42558;52.388;13.390;2022-12-26T09:14:55;9.31;;;4.94;;
56680;SDS011;42558;52.388;13.390;2022-12-26T09:17:24;9.50;;;5.32;;
56680;SDS011;42558;52.388;13.390;2022-12-26T09:19:56;12.92;;;5.32;;
56680;SDS011;42558;52.388;13.390;2022-12-26T09:22:24;10.45;;;5.32;;
56680;SDS011;42558;52.388;13.390;2022-12-26T09:25:20;11.02;;;5.89;;
56680;SDS011;42558;52.388;13.390;2022-12-26T09:27:52;14.25;;;5.70;;
56680;SDS011;42558;52.388;13.390;2022-12-26T09:30:27;9.31;;;5.13;;
56680;SDS011;42558;52.388;13.390;2022-12-26T09:32:57;10.83;;;5.13;;
56680;SDS011;42558;52.388;13.390;2022-12-26T09:35:27;11.78;;;5.13;;
56680;SDS011;42558;52.388;13.390;2022-12-26T09:37:57;11.02;;;6.08;;
56680;SDS011;42558;52.388;13.390;2022-12-26T09:40:32;13.87;;;5.32;;
56680;SDS011;42558;52.388;13.390;2022-12-26T09:43:30;9.69;;;5.89;;
56680;SDS011;42558;52.388;13.390;2022-12-26T09:49:07;9.50;;;5.32;;
56680;SDS011;42558;52.388;13.390;2022-12-26T09:51:46;9.69;;;5.32;;
56680;SDS011;42558;52.388;13.390;2022-12-26T09:54:41;9.12;;;4.94;;
56680;SDS011;42558;52.388;13.390;2022-12-26T09:57:20;9.12;;;4.75;;
56680;SDS011;42558;52.388;13.390;2022-12-26T10:00:02;14.63;;;5.13;;
56680;SDS011;42558;52.388;13.390;2022-12-26T10:02:34;10.45;;;4.37;;
56680;SDS011;42558;52.388;13.390;2022-12-26T10:05:04;9.31;;;5.32;;
56680;SDS011;42558;52.388;13.390;2022-12-26T10:07:41;12.54;;;5.13;;
56680;SDS011;42558;52.388;13.390;2022-12-26T10:13:20;10.26;;;4.75;;
56680;SDS011;42558;52.388;13.390;2022-12-26T10:15:56;10.26;;;4.56;;
56680;SDS011;42558;52.388;13.390;2022-12-26T10:19:05;10.26;;;4.94;;
56680;SDS011;42558;52.388;13.390;2022-12-26T10:24:24;10.45;;;4.56;;
56680;SDS011;42558;52.388;13.390;2022-12-26T10:27:04;11.21;;;5.13;;
56680;SDS011;42558;52.388;13.390;2022-12-26T10:29:55;9.88;;;4.37;;
56680;SDS011;42558;52.388;13.390;2022-12-26T10:32:37;11.02;;;4.18;;
56680;SDS011;42558;52.388;13.390;2022-12-26T10:35:34;11.40;;;4.94;;
56680;SDS011;42558;52.388;13.390;2022-12-26T10:41:19;9.31;;;4.37;;
56680;SDS011;42558;52.388;13.390;2022-12-26T10:43:53;11.97;;;4.56;;
56680;SDS011;42558;52.388;13.390;2022-12-26T10:49:32;7.79;;;3.61;;
56680;SDS011;42558;52.388;13.390;2022-12-26T10:52:03;10.83;;;3.99;;
56680;SDS011;42558;52.388;13.390;2022-12-26T10:54:33;7.98;;;3.80;;
56680;SDS011;42558;52.388;13.390;2022-12-26T10:57:03;7.98;;;4.56;;
56680;SDS011;42558;52.388;13.390;2022-12-26T10:59:43;7.60;;;4.18;;
56680;SDS011;42558;52.388;13.390;2022-12-26T11:05:04;7.60;;;3.99;;
56680;SDS011;42558;52.388;13.390;2022-12-26T11:08:27;9.50;;;4.18;;
56680;SDS011;42558;52.388;13.390;2022-12-26T11:11:26;10.07;;;4.75;;
56680;SDS011;42558;52.388;13.390;2022-12-26T11:14:40;7.98;;;3.99;;
56680;SDS011;42558;52.388;13.390;2022-12-26T11:17:28;9.31;;;4.56;;
56680;SDS011;42558;52.388;13.390;2022-12-26T11:22:45;10.83;;;5.13;;
56680;SDS011;42558;52.388;13.390;2022-12-26T11:25:23;10.83;;;5.32;;
56680;SDS011;42558;52.388;13.390;2022-12-26T11:27:57;11.21;;;4.94;;
56680;SDS011;42558;52.388;13.390;2022-12-26T11:30:32;8.55;;;3.99;;
56680;SDS011;42558;52.388;13.390;2022-12-26T11:36:10;11.02;;;4.37;;
56680;SDS011;42558;52.388;13.390;2022-12-26T11:38:58;9.31;;;4.18;;
56680;SDS011;42558;52.388;13.390;2022-12-26T11:41:35;9.31;;;4.75;;
56680;SDS011;42558;52.388;13.390;2022-12-26T11:49:33;11.02;;;4.94;;
56680;SDS011;42558;52.388;13.390;2022-12-26T11:52:30;10.83;;;4.56;;
56680;SDS011;42558;52.388;13.390;2022-12-26T12:12:26;10.64;;;5.13;;
56680;SDS011;42558;52.388;13.390;2022-12-26T12:15:10;9.50;;;4.37;;
56680;SDS011;42558;52.388;13.390;2022-12-26T12:18:05;12.16;;;4.75;;
56680;SDS011;42558;52.388;13.390;2022-12-26T12:26:35;9.31;;;4.94;;
56680;SDS011;42558;52.388;13.390;2022-12-26T12:32:28;10.45;;;4.75;;
56680;SDS011;42558;52.388;13.390;2022-12-26T12:38:29;9.12;;;4.94;;
56680;SDS011;42558;52.388;13.390;2022-12-26T12:44:13;8.17;;;4.56;;
56680;SDS011;42558;52.388;13.390;2022-12-26T12:56:06;9.50;;;4.94;;
56680;SDS011;42558;52.388;13.390;2022-12-26T13:01:38;9.88;;;5.13;;
56680;SDS011;42558;52.388;13.390;2022-12-26T13:04:22;8.74;;;4.56;;
56680;SDS011;42558;52.388;13.390;2022-12-26T13:07:22;10.07;;;5.32;;
56680;SDS011;42558;52.388;13.390;2022-12-26T13:10:03;8.74;;;4.18;;
56680;SDS011;42558;52.388;13.390;2022-12-26T13:12:43;9.88;;;4.75;;
56680;SDS011;42558;52.388;13.390;2022-12-26T13:15:28;8.93;;;4.75;;
56680;SDS011;42558;52.388;13.390;2022-12-26T13:18:18;9.69;;;4.94;;
56680;SDS011;42558;52.388;13.390;2022-12-26T13:21:06;8.93;;;4.56;;
56680;SDS011;42558;52.388;13.390;2022-12-26T13:23:49;11.02;;;5.13;;
56680;SDS011;42558;52.388;13.390;2022-12-26T13:26:55;9.88;;;5.51;;
56680;SDS011;42558;52.388;13.390;2022-12-26T13:29:46;10.64;;;5.13;;
56680;SDS011;42558;52.388;13.390;2022-12-26T13:32:27;8.74;;;4.56;;
56680;SDS011;42558;52.388;13.390;2022-12-26T13:35:00;8.74;;;4.75;;
56680;SDS011;42558;52.388;13.390;2022-12-26T13:40:05;10.26;;;5.89;;
56680;SDS011;42558;52.388;13.390;2022-12-26T13:42:52;10.26;;;4.94;;
56680;SDS011;42558;52.388;13.390;2022-12-26T13:50:51;9.69;;;4.75;;
56680;SDS011;42558;52.388;13.390;2022-12-26T13:55:55;11.21;;;5.51;;
56680;SDS011;42558;52.388;13.390;2022-12-26T13:58:35;7.79;;;4.75;;
56680;SDS011;42558;52.388;13.390;2022-12-26T14:01:31;9.31;;;4.94;;
56680;SDS011;42558;52.388;13.390;2022-12-26T14:07:40;8.93;;;5.32;;
56680;SDS011;42558;52.388;13.390;2022-12-26T14:17:10;9.31;;;5.32;;
56680;SDS011;42558;52.388;13.390;2022-12-26T14:20:14;9.69;;;5.51;;
56680;SDS011;42558;52.388;13.390;2022-12-26T14:26:40;7.98;;;4.37;;
56680;SDS011;42558;52.388;13.390;2022-12-26T14:29:53;9.31;;;5.13;;
56680;SDS011;42558;52.388;13.390;2022-12-26T14:35:38;8.93;;;4.18;;
56680;SDS011;42558;52.388;13.390;2022-12-26T14:38:31;8.55;;;4.37;;
56680;SDS011;42558;52.388;13.390;2022-12-26T14:41:21;9.69;;;4.94;;
56680;SDS011;42558;52.388;13.390;2022-12-26T14:47:08;9.50;;;4.56;;
56680;SDS011;42558;52.388;13.390;2022-12-26T14:49:40;9.69;;;5.13;;
56680;SDS011;42558;52.388;13.390;2022-12-26T14:54:53;9.69;;;4.37;;
56680;SDS011;42558;52.388;13.390;2022-12-26T14:57:45;7.79;;;3.99;;
56680;SDS011;42558;52.388;13.390;2022-12-26T15:05:32;8.36;;;3.99;;
56680;SDS011;42558;52.388;13.390;2022-12-26T15:08:45;10.26;;;4.37;;
56680;SDS011;42558;52.388;13.390;2022-12-26T15:24:45;11.02;;;5.13;;
56680;SDS011;42558;52.388;13.390;2022-12-26T15:28:13;10.83;;;5.13;;
56680;SDS011;42558;52.388;13.390;2022-12-26T15:42:50;7.98;;;3.80;;
56680;SDS011;42558;52.388;13.390;2022-12-26T15:48:36;9.50;;;4.56;;
56680;SDS011;42558;52.388;13.390;2022-12-26T15:51:17;9.31;;;3.80;;
56680;SDS011;42558;52.388;13.390;2022-12-26T15:57:07;10.26;;;4.18;;
56680;SDS011;42558;52.388;13.390;2022-12-26T16:09:10;7.60;;;3.42;;
56680;SDS011;42558;52.388;13.390;2022-12-26T16:11:56;7.22;;;3.42;;
56680;SDS011;42558;52.388;13.390;2022-12-26T16:14:30;8.93;;;3.04;;
56680;SDS011;42558;52.388;13.390;2022-12-26T16:19:49;7.60;;;2.66;;
56680;SDS011;42558;52.388;13.390;2022-12-26T16:25:19;5.32;;;2.09;;
56680;SDS011;42558;52.388;13.390;2022-12-26T16:27:56;8.74;;;2.66;;
56680;SDS011;42558;52.388;13.390;2022-12-26T16:30:35;6.84;;;2.28;;
56680;SDS011;42558;52.388;13.390;2022-12-26T16:33:06;6.65;;;2.09;;
56680;SDS011;42558;52.388;13.390;2022-12-26T16:35:38;6.84;;;2.66;;
56680;SDS011;42558;52.388;13.390;2022-12-26T16:38:15;6.27;;;2.66;;
56680;SDS011;42558;52.388;13.390;2022-12-26T16:40:51;7.79;;;2.28;;
56680;SDS011;42558;52.388;13.390;2022-12-26T16:43:25;6.65;;;2.47;;
56680;SDS011;42558;52.388;13.390;2022-12-26T16:46:02;5.70;;;2.28;;
56680;SDS011;42558;52.388;13.390;2022-12-26T16:48:34;7.98;;;2.28;;
56680;SDS011;42558;52.388;13.390;2022-12-26T16:51:53;6.08;;;2.28;;
56680;SDS011;42558;52.388;13.390;2022-12-26T16:56:52;5.89;;;2.28;;
56680;SDS011;42558;52.388;13.390;2022-12-26T16:59:39;6.27;;;2.09;;
56680;SDS011;42558;52.388;13.390;2022-12-26T17:02:23;6.27;;;2.47;;
56680;SDS011;42558;52.388;13.390;2022-12-26T17:05:03;5.32;;;1.90;;
56680;SDS011;42558;52.388;13.390;2022-12-26T17:07:38;6.27;;;2.66;;
56680;SDS011;42558;52.388;13.390;2022-12-26T17:10:36;7.41;;;2.66;;
56680;SDS011;42558;52.388;13.390;2022-12-26T17:13:07;6.46;;;2.47;;
56680;SDS011;42558;52.388;13.390;2022-12-26T17:15:48;6.27;;;2.28;;
56680;SDS011;42558;52.388;13.390;2022-12-26T17:18:35;5.51;;;2.47;;
56680;SDS011;42558;52.388;13.390;2022-12-26T17:21:25;7.22;;;2.47;;
56680;SDS011;42558;52.388;13.390;2022-12-26T17:26:46;7.98;;;2.28;;
56680;SDS011;42558;52.388;13.390;2022-12-26T17:32:31;6.65;;;2.28;;
56680;SDS011;42558;52.388;13.390;2022-12-26T17:35:05;6.46;;;2.28;;
56680;SDS011;42558;52.388;13.390;2022-12-26T17:37:41;5.51;;;2.09;;
56680;SDS011;42558;52.388;13.390;2022-12-26T17:42:52;6.84;;;2.85;;
56680;SDS011;42558;52.388;13.390;2022-12-26T17:45:33;12.54;;;3.23;;
56680;SDS011;42558;52.388;13.390;2022-12-26T17:48:01;6.65;;;3.04;;
56680;SDS011;42558;52.388;13.390;2022-12-26T17:50:35;7.22;;;3.04;;
56680;SDS011;42558;52.388;13.390;2022-12-26T17:56:20;7.79;;;3.23;;
56680;SDS011;42558;52.388;13.390;2022-12-26T17:58:53;5.70;;;2.47;;
56680;SDS011;42558;52.388;13.390;2022-12-26T18:01:21;6.84;;;2.85;;
56680;SDS011;42558;52.388;13.390;2022-12-26T18:03:50;6.27;;;2.09;;
56680;SDS011;42558;52.388;13.390;2022-12-26T18:06:18;6.27;;;2.66;;
56680;SDS011;42558;52.388;13.390;2022-12-26T18:08:50;8.55;;;2.47;;
56680;SDS011;42558;52.388;13.390;2022-12-26T18:11:18;7.79;;;2.66;;
56680;SDS011;42558;52.388;13.390;2022-12-26T18:13:47;7.60;;;3.04;;
56680;SDS011;42558;52.388;13.390;2022-12-26T18:16:19;7.98;;;2.66;;
56680;SDS011;42558;52.388;13.390;2022-12-26T18:18:50;8.36;;;2.66;;
56680;SDS011;42558;52.388;13.390;2022-12-26T18:21:17;5.89;;;2.09;;
56680;SDS011;42558;52.388;13.390;2022-12-26T18:23:47;12.16;;;3.42;;
56680;SDS011;42558;52.388;13.390;2022-12-26T18:26:25;8.17;;;3.04;;
56680;SDS011;42558;52.388;13.390;2022-12-26T18:28:57;9.12;;;3.04;;
56680;SDS011;42558;52.388;13.390;2022-12-26T18:31:27;6.46;;;2.66;;
56680;SDS011;42558;52.388;13.390;2022-12-26T18:33:57;7.98;;;2.85;;
56680;SDS011;42558;52.388;13.390;2022-12-26T18:36:37;10.26;;;3.23;;
56680;SDS011;42558;52.388;13.390;2022-12-26T18:39:13;7.79;;;2.85;;
56680;SDS011;42558;52.388;13.390;2022-12-26T18:41:43;12.92;;;3.42;;
56680;SDS011;42558;52.388;13.390;2022-12-26T18:44:14;7.22;;;2.85;;
56680;SDS011;42558;52.388;13.390;2022-12-26T18:46:44;6.08;;;2.66;;
56680;SDS011;42558;52.388;13.390;2022-12-26T18:49:15;7.03;;;2.66;;
56680;SDS011;42558;52.388;13.390;2022-12-26T18:51:46;10.07;;;3.04;;
56680;SDS011;42558;52.388;13.390;2022-12-26T18:54:16;8.36;;;3.04;;
56680;SDS011;42558;52.388;13.390;2022-12-26T18:56:46;8.36;;;3.23;;
56680;SDS011;42558;52.388;13.390;2022-12-26T18:59:16;10.07;;;3.04;;
56680;SDS011;42558;52.388;13.390;2022-12-26T19:01:44;8.17;;;3.04;;
56680;SDS011;42558;52.388;13.390;2022-12-26T19:04:14;5.89;;;2.28;;
56680;SDS011;42558;52.388;13.390;2022-12-26T19:06:44;6.27;;;2.28;;
56680;SDS011;42558;52.388;13.390;2022-12-26T19:09:13;5.89;;;3.04;;
56680;SDS011;42558;52.388;13.390;2022-12-26T19:11:44;6.27;;;3.04;;
56680;SDS011;42558;52.388;13.390;2022-12-26T19:14:20;7.79;;;2.85;;